[Every four weeks | 1730z - 2030z] EDDT EDDM City Shuttle

Zu Eventkalender hinzugefügt: 20.11.19, 08.04.20, 06.05.20, 03.06.20, 01.07.20, 29.07.20



Die RG Berlin und RG München freut sich euch auf der neuen Shuttle-Serie zwischen Berlin Tegel und München Franz Josef Strauß begrüßen zu dürfen.
Fliegt mit uns auf einer der verkehrsreichsten innerdeutschen Flugstrecken.
Alle vier Wochen werden wir beide Flughäfen von GND bis CTR für euch besetzen, was euch auf der kompletten Strecke vollen Service bieten wird.
Egal ob Airliner oder Prop, wir freuen uns auf euch.

Alle vier Wochen, ab dem 20.11.2019
1730z - 2030z (Sommer), 1830z - 2130z (Winter)
EDDT - EDDM

Charts


-----

RG Berlin and RG München kindly invites you to our shuttle series between Berlin Tegel (EDDT) and München Franz Josef Strauß (EDDM).
Join us on one of the most busiest commercial routes in Germany.
Every four weeks, we’ll staff both airports from GND to CTR and provide you with full coverage between these two destinations.
If you enjoy big airliners or small prop aircraft, everyone is welcomed.

Every four weeks, starting on the 20.11.2019
1730z - 2030z (Summer), 1830z - 2130z (Winter)
EDDT - EDDM

Charts

 
Zuletzt bearbeitet von einem Moderator:
Das ist heute :)

EDDM 201100Z 2012/2118 05005KT 5000 BR OVC006 TEMPO 2012/2016 BKN012 BECMG 2022/2024 VRB03KT 3000 BR TEMPO 2100/2107 1200 BR OVC004 BECMG 2109/2111 6000 BKN010
EDDT 201100Z 2012/2112 32003KT 8000 BKN005 TEMPO 2012/2018 2500 -DZ BKN004 BECMG 2018/2020 03005KT 3000 BR BKN003 TEMPO 2020/2109 2000 -DZ
Das könnte spannend werden 🧐
 

Andreas Stender

1413584
PR & Events - Leitung
RG Berlin - Event
It's shuttle time again. Heute Abend eröffnen München und Berlin wieder die Rennstrecke zwischen den beiden deutschen Städten. Von 19.30 Uhr bis 22.30 Uhr Lokalzeit könnt ihr an beiden Airports wieder volle ATC-Besetzung und professionellen Service genießen.

Und pünktlich zum Shuttle beruhigt sich der Wind an beiden Airports:

München
TAF: EDDM 110500Z 1106/1212 26020G35KT 9999 SCT015 BKN030 BECMG 1114/1116 25012KT BECMG 1119/1121 24007KT BECMG 1206/1208 24013KT BECMG 1208/1210 25020G35KT
Berlin
TAF: EDDT 110500Z 1106/1206 27015KT 9999 SCT030 TEMPO 1106/1115 26015G25KT BECMG 1115/1117 21009KT BECMG 1123/1201 22014KT TEMPO 1203/1205 22020G30KT RA
Fasten your seat belts and cleared for takeoff...
 

Andreas Stender

1413584
PR & Events - Leitung
RG Berlin - Event
Die Zeit verfliegt, es sind schon wieder 4 Wochen vorbei. Das heißt, es ist wieder Shuttle angesagt heute.
Berlin-Tegel und München freuen sich heute Abend ab 19.30 Uhr Lokalzeit wieder auf jede Menge Traffic zwischen den beiden Hotspots.

Und unterschiedlicher könnten die Wetterbedingungen an beiden Airports kaum sein. Wo in Tegel den ganzen Tag traumhaftes Wetter und fantastische Sicht wartet, zeigt die Prognose für München für heute Abend Gewitter, Regen und Windböen bis 35 Knoten. Rein in die Suppe oder raus aus der Suppe, Eure Entscheidung.

Viel Spaß...
 
Oben